createdAt,value
2019-01-11T00:02:16.668Z,56.18
2019-01-11T00:04:45.347Z,56.75
2019-01-11T00:07:13.949Z,56.74
2019-01-11T00:09:42.603Z,57.00
2019-01-11T00:12:11.246Z,56.90
2019-01-11T00:14:39.890Z,57.10
2019-01-11T00:17:08.632Z,57.32
2019-01-11T00:19:37.421Z,56.92
2019-01-11T00:22:06.381Z,57.32
2019-01-11T00:24:34.969Z,57.90
2019-01-11T00:27:03.572Z,56.95
2019-01-11T00:29:32.276Z,57.43
2019-01-11T00:32:00.899Z,57.49
2019-01-11T00:34:29.612Z,57.30
2019-01-11T00:36:58.333Z,57.90
2019-01-11T00:39:26.947Z,58.10
2019-01-11T00:41:55.614Z,57.92
2019-01-11T00:44:24.188Z,58.46
2019-01-11T00:46:52.875Z,58.81
2019-01-11T00:49:21.544Z,59.25
2019-01-11T00:51:50.176Z,59.73
2019-01-11T00:54:18.943Z,59.88
2019-01-11T00:56:47.621Z,59.55
2019-01-11T00:59:16.283Z,60.11
2019-01-11T01:01:47.977Z,59.89
2019-01-11T01:04:20.833Z,60.09
2019-01-11T01:06:53.584Z,60.37
2019-01-11T01:09:25.796Z,60.35
2019-01-11T01:11:54.719Z,61.30
2019-01-11T01:14:23.344Z,61.16
2019-01-11T01:16:54.236Z,61.47
2019-01-11T01:19:22.857Z,61.80
2019-01-11T01:21:51.570Z,62.19
2019-01-11T01:24:20.191Z,62.65
2019-01-11T01:26:50.182Z,62.85
2019-01-11T01:29:18.956Z,63.32
2019-01-11T01:31:47.597Z,62.74
2019-01-11T01:34:16.229Z,63.08
2019-01-11T01:36:44.863Z,63.34
2019-01-11T01:39:13.498Z,63.29
2019-01-11T01:41:42.118Z,63.48
2019-01-11T01:44:10.819Z,63.65
2019-01-11T01:46:39.598Z,63.46
2019-01-11T01:49:08.567Z,63.45
2019-01-11T01:51:37.288Z,63.68
2019-01-11T01:54:05.923Z,63.80
2019-01-11T01:56:34.666Z,63.78
2019-01-11T01:59:03.252Z,63.49
2019-01-11T02:01:31.885Z,63.23
2019-01-11T02:04:00.484Z,63.28
2019-01-11T02:06:29.105Z,63.00
2019-01-11T02:08:57.706Z,62.89
2019-01-11T02:11:26.272Z,62.79
2019-01-11T02:13:55.596Z,62.50
2019-01-11T02:16:24.289Z,62.81
2019-01-11T02:18:52.960Z,63.04
2019-01-11T02:21:21.691Z,63.08
2019-01-11T02:23:50.360Z,63.50
2019-01-11T02:26:18.974Z,63.56
2019-01-11T02:28:47.604Z,63.80
2019-01-11T02:31:16.260Z,63.70
2019-01-11T02:33:44.938Z,63.19
2019-01-11T02:36:13.543Z,63.00
2019-01-11T02:38:42.131Z,62.71
2019-01-11T02:41:10.835Z,63.02
2019-01-11T02:43:39.467Z,63.07
2019-01-11T02:46:08.230Z,63.86
2019-01-11T02:48:36.918Z,63.99
2019-01-11T02:51:05.595Z,64.51
2019-01-11T02:53:34.217Z,64.80
2019-01-11T02:56:02.956Z,64.60
2019-01-11T02:58:31.617Z,65.07
2019-01-11T03:01:00.264Z,65.83
2019-01-11T03:03:28.882Z,66.24
2019-01-11T03:05:57.658Z,66.61
2019-01-11T03:08:26.348Z,66.87
2019-01-11T03:10:55.763Z,66.99
2019-01-11T03:13:24.489Z,66.97
2019-01-11T03:15:53.058Z,66.63
2019-01-11T03:18:21.712Z,66.97
2019-01-11T03:20:50.338Z,66.97
2019-01-11T03:23:18.922Z,66.97
2019-01-11T03:25:47.565Z,66.98
2019-01-11T03:28:16.698Z,67.00
2019-01-11T03:30:45.383Z,66.88
2019-01-11T03:33:13.981Z,66.99
2019-01-11T03:35:42.596Z,67.06
2019-01-11T03:38:11.211Z,67.14
2019-01-11T03:40:39.856Z,67.05
2019-01-11T03:43:08.454Z,66.84
2019-01-11T03:45:37.112Z,66.87
2019-01-11T03:48:05.789Z,66.94
2019-01-11T03:50:34.491Z,66.88
2019-01-11T03:53:03.088Z,66.73
2019-01-11T03:55:31.767Z,66.87
2019-01-11T03:58:00.522Z,67.01
2019-01-11T04:00:29.112Z,67.29
2019-01-11T04:02:57.714Z,67.48
2019-01-11T04:05:26.376Z,67.83
2019-01-11T04:07:55.903Z,67.81
2019-01-11T04:10:25.039Z,67.53
2019-01-11T04:12:53.731Z,67.75
2019-01-11T04:15:23.130Z,67.80
2019-01-11T04:18:29.533Z,67.63
2019-01-11T04:20:58.205Z,67.46
2019-01-11T04:23:26.859Z,67.36
2019-01-11T04:25:56.057Z,67.61
2019-01-11T04:28:24.679Z,67.57
2019-01-11T04:30:53.364Z,67.60
2019-01-11T04:33:22.011Z,67.64
2019-01-11T04:35:50.917Z,67.71
2019-01-11T04:38:19.546Z,67.76
2019-01-11T04:40:48.532Z,68.48
2019-01-11T04:43:17.122Z,68.66
2019-01-11T04:45:45.817Z,68.34
2019-01-11T04:48:14.484Z,68.54
2019-01-11T04:50:43.304Z,69.41
2019-01-11T04:53:11.917Z,69.92
2019-01-11T04:55:40.571Z,70.71
2019-01-11T04:58:09.220Z,71.17
2019-01-11T05:00:37.913Z,70.88
2019-01-11T05:03:06.540Z,70.51
2019-01-11T05:05:35.185Z,70.49
2019-01-11T05:08:03.887Z,69.94
2019-01-11T05:10:32.493Z,70.02
2019-01-11T05:13:19.616Z,69.88
2019-01-11T05:15:48.267Z,69.85
2019-01-11T05:18:16.882Z,70.45
2019-01-11T05:20:45.522Z,70.56
2019-01-11T05:23:14.192Z,70.23
2019-01-11T05:25:42.825Z,70.40
2019-01-11T05:28:11.489Z,70.64
2019-01-11T05:30:40.145Z,71.49
2019-01-11T05:33:08.754Z,72.25
2019-01-11T05:35:37.494Z,72.57
2019-01-11T05:38:06.188Z,72.59
2019-01-11T05:40:34.819Z,73.06
2019-01-11T05:43:03.586Z,73.26
2019-01-11T05:45:32.235Z,73.58
2019-01-11T05:48:00.840Z,74.41
2019-01-11T05:50:29.607Z,74.47
2019-01-11T05:52:58.493Z,74.92
2019-01-11T05:55:45.185Z,75.72
2019-01-11T05:58:41.981Z,75.26
2019-01-11T06:01:10.914Z,75.38
2019-01-11T06:03:39.519Z,75.50
2019-01-11T06:06:08.229Z,76.02
2019-01-11T06:08:37.437Z,76.14
2019-01-11T06:11:06.023Z,76.25
2019-01-11T06:13:34.656Z,76.26
2019-01-11T06:16:03.482Z,76.48
2019-01-11T06:18:32.116Z,76.44
2019-01-11T06:21:00.709Z,76.14
2019-01-11T06:23:29.453Z,76.80
2019-01-11T06:25:58.131Z,76.37
2019-01-11T06:28:26.762Z,76.44
2019-01-11T06:30:55.949Z,76.37
2019-01-11T06:33:24.692Z,75.99
2019-01-11T06:35:53.495Z,75.89
2019-01-11T06:38:22.145Z,76.24
2019-01-11T06:40:50.764Z,76.12
2019-01-11T06:43:19.383Z,75.88
2019-01-11T06:45:48.017Z,75.66
2019-01-11T06:48:29.092Z,75.87
2019-01-11T06:50:57.710Z,76.13
2019-01-11T06:53:26.474Z,75.68
2019-01-11T06:55:56.003Z,76.33
2019-01-11T06:58:24.591Z,76.48
2019-01-11T07:00:53.163Z,76.57
2019-01-11T07:03:21.905Z,76.38
2019-01-11T07:05:50.614Z,76.38
2019-01-11T07:08:19.209Z,75.88
2019-01-11T07:10:47.937Z,75.55
2019-01-11T07:13:16.569Z,75.78
2019-01-11T07:15:45.223Z,76.39
2019-01-11T07:18:13.894Z,76.12
2019-01-11T07:20:42.969Z,76.10
2019-01-11T07:23:12.467Z,75.96
2019-01-11T07:25:41.193Z,76.03
2019-01-11T07:28:13.614Z,75.73
2019-01-11T07:31:05.246Z,75.97
2019-01-11T07:33:33.934Z,76.01
2019-01-11T07:36:20.745Z,75.40
2019-01-11T07:38:49.371Z,75.19
2019-01-11T07:41:17.993Z,75.73
2019-01-11T07:43:46.753Z,75.94
2019-01-11T07:46:15.354Z,75.59
2019-01-11T07:48:44.007Z,75.21
2019-01-11T07:51:12.591Z,75.60
2019-01-11T07:53:41.207Z,75.25
2019-01-11T07:56:09.894Z,76.24
2019-01-11T07:58:38.547Z,76.22
2019-01-11T08:01:07.288Z,76.00
2019-01-11T08:03:36.017Z,75.55
2019-01-11T08:06:04.821Z,75.92
2019-01-11T08:08:33.430Z,76.42
2019-01-11T08:11:03.131Z,76.04
2019-01-11T08:13:31.817Z,75.99
2019-01-11T08:16:00.494Z,75.28
2019-01-11T08:18:29.101Z,75.81
2019-01-11T08:20:57.889Z,76.55
2019-01-11T08:23:26.610Z,76.81
2019-01-11T08:25:56.427Z,76.73
2019-01-11T08:28:25.323Z,77.17
2019-01-11T08:30:54.181Z,76.66
2019-01-11T08:33:23.038Z,76.46
2019-01-11T08:35:51.735Z,76.65
2019-01-11T08:38:21.575Z,77.13
2019-01-11T08:40:50.153Z,77.04
2019-01-11T08:43:18.875Z,77.14
2019-01-11T08:45:47.663Z,76.58
2019-01-11T08:48:16.349Z,76.92
2019-01-11T08:50:46.598Z,76.28
2019-01-11T08:53:15.370Z,76.37
2019-01-11T08:55:44.044Z,77.11
2019-01-11T08:58:12.675Z,77.00
2019-01-11T09:00:41.364Z,76.85
2019-01-11T09:03:10.000Z,76.85
2019-01-11T09:05:38.605Z,77.14
2019-01-11T09:08:07.327Z,77.02
2019-01-11T09:10:35.921Z,76.86
2019-01-11T09:13:04.618Z,76.81
2019-01-11T09:15:34.005Z,77.22
2019-01-11T09:18:13.040Z,77.40
2019-01-11T09:20:42.653Z,77.44
2019-01-11T09:23:12.770Z,77.35
2019-01-11T09:25:41.442Z,77.53
2019-01-11T09:28:10.171Z,76.82
2019-01-11T09:34:08.337Z,76.74
2019-01-11T09:36:36.954Z,76.83
2019-01-11T09:39:08.587Z,76.48
2019-01-11T09:41:37.284Z,75.10
2019-01-11T09:44:06.108Z,75.49
2019-01-11T09:46:34.709Z,76.01
2019-01-11T09:49:05.253Z,76.22
2019-01-11T09:51:33.836Z,76.27
2019-01-11T09:54:02.479Z,75.83
2019-01-11T09:56:31.068Z,75.37
2019-01-11T09:58:59.755Z,75.85
2019-01-11T10:01:28.440Z,75.59
2019-01-11T10:03:57.125Z,75.87
2019-01-11T10:06:25.710Z,76.05
2019-01-11T10:08:54.961Z,76.03
2019-01-11T10:11:23.597Z,76.22
2019-01-11T10:13:52.517Z,75.04
2019-01-11T10:16:21.174Z,75.54
2019-01-11T10:18:49.801Z,75.41
2019-01-11T10:21:22.337Z,75.41
2019-01-11T10:23:48.783Z,75.73
2019-01-11T10:26:17.873Z,75.51
2019-01-11T10:28:47.922Z,75.34
2019-01-11T10:31:16.725Z,74.98
2019-01-11T10:33:45.354Z,74.43
2019-01-11T10:36:13.954Z,74.15
2019-01-11T10:38:42.638Z,73.96
2019-01-11T10:41:11.290Z,72.54
2019-01-11T10:43:39.979Z,73.49
2019-01-11T10:46:19.854Z,73.20
2019-01-11T10:48:48.506Z,73.10
2019-01-11T10:51:19.071Z,73.17
2019-01-11T10:53:47.496Z,73.44
2019-01-11T10:56:16.238Z,73.39
2019-01-11T10:58:45.050Z,73.28
2019-01-11T11:01:13.923Z,73.69
2019-01-11T11:03:42.694Z,72.87
2019-01-11T11:06:11.296Z,72.22
2019-01-11T11:08:39.975Z,72.01
2019-01-11T11:11:08.579Z,72.09
2019-01-11T11:13:37.584Z,72.25
2019-01-11T11:16:06.529Z,71.78
2019-01-11T11:18:35.269Z,71.86
2019-01-11T11:21:03.887Z,72.14
2019-01-11T11:23:32.553Z,72.23
2019-01-11T11:26:01.390Z,73.14
2019-01-11T11:28:30.066Z,73.15
2019-01-11T11:30:58.755Z,73.58
2019-01-11T11:33:27.479Z,73.38
2019-01-11T11:35:56.818Z,73.68
2019-01-11T11:38:25.472Z,73.86
2019-01-11T11:40:54.520Z,73.29
2019-01-11T11:43:23.127Z,73.17
2019-01-11T11:45:51.723Z,72.63
2019-01-11T11:48:20.356Z,72.83
2019-01-11T11:50:49.216Z,72.67
2019-01-11T11:53:17.863Z,73.25
2019-01-11T11:55:46.595Z,73.38
2019-01-11T11:58:15.233Z,72.53
2019-01-11T12:00:43.898Z,72.16
2019-01-11T12:03:12.503Z,72.34
2019-01-11T12:05:41.161Z,72.92
2019-01-11T12:08:09.898Z,71.94
2019-01-11T12:10:38.587Z,72.29
2019-01-11T12:13:07.346Z,72.03
2019-01-11T12:15:35.976Z,72.68
2019-01-11T12:18:04.626Z,72.60
2019-01-11T12:20:33.610Z,72.36
2019-01-11T12:23:02.269Z,72.29
2019-01-11T12:25:30.859Z,72.57
2019-01-11T12:27:59.680Z,72.71
2019-01-11T12:30:28.448Z,72.03
2019-01-11T12:32:57.042Z,72.18
2019-01-11T12:35:25.764Z,72.87
2019-01-11T12:37:54.529Z,72.37
2019-01-11T12:40:23.331Z,72.27
2019-01-11T12:42:52.067Z,72.67
2019-01-11T12:45:21.075Z,72.63
2019-01-11T12:47:49.741Z,72.49
2019-01-11T12:50:20.927Z,72.21
2019-01-11T12:52:49.572Z,72.75
2019-01-11T12:55:18.468Z,72.67
2019-01-11T12:57:47.248Z,72.98
2019-01-11T13:00:16.792Z,73.16
2019-01-11T13:02:45.491Z,73.38
2019-01-11T13:05:19.244Z,73.67
2019-01-11T13:07:48.100Z,73.48
2019-01-11T13:10:18.065Z,73.25
2019-01-11T13:12:46.839Z,73.79
2019-01-11T13:15:23.046Z,73.52
2019-01-11T13:17:51.706Z,72.86
2019-01-11T13:20:21.558Z,73.33
2019-01-11T13:22:50.727Z,73.15
2019-01-11T13:25:19.440Z,73.00
2019-01-11T13:27:48.186Z,72.71
2019-01-11T13:30:17.523Z,72.68
2019-01-11T13:32:46.213Z,72.97
2019-01-11T13:35:14.891Z,72.80
2019-01-11T13:37:43.631Z,72.41
2019-01-11T13:40:14.815Z,72.95
2019-01-11T13:42:43.562Z,72.93
2019-01-11T13:45:12.280Z,73.64
2019-01-11T13:47:43.090Z,73.65
2019-01-11T13:50:33.714Z,73.91
2019-01-11T13:53:02.378Z,74.19
2019-01-11T13:55:31.040Z,74.50
2019-01-11T13:57:59.768Z,74.18
2019-01-11T14:00:28.467Z,73.56
2019-01-11T14:02:57.364Z,73.79
2019-01-11T14:05:26.107Z,73.60
2019-01-11T14:07:54.839Z,73.30
2019-01-11T14:10:23.479Z,73.27
2019-01-11T14:12:52.441Z,73.08
2019-01-11T14:15:21.081Z,72.97
2019-01-11T14:17:49.845Z,72.75
2019-01-11T14:20:18.583Z,72.42
2019-01-11T14:22:47.224Z,72.31
2019-01-11T14:25:17.150Z,71.93
2019-01-11T14:27:46.342Z,72.17
2019-01-11T14:30:15.554Z,72.74
2019-01-11T14:32:44.423Z,72.77
2019-01-11T14:35:13.164Z,72.34
2019-01-11T14:37:41.804Z,71.86
2019-01-11T14:40:12.694Z,71.93
2019-01-11T14:42:41.409Z,72.28
2019-01-11T14:45:11.888Z,72.26
2019-01-11T14:47:40.671Z,72.46
2019-01-11T14:50:12.295Z,72.27
2019-01-11T14:52:40.949Z,72.41
2019-01-11T14:55:09.547Z,72.27
2019-01-11T14:57:38.205Z,72.53
2019-01-11T15:00:10.439Z,72.60
2019-01-11T15:02:39.167Z,72.72
2019-01-11T15:05:09.462Z,72.70
2019-01-11T15:07:38.235Z,72.98
2019-01-11T15:10:09.157Z,73.05
2019-01-11T15:12:37.883Z,72.89
2019-01-11T15:15:08.131Z,72.89
2019-01-11T15:17:36.799Z,73.00
2019-01-11T15:20:07.123Z,73.29
2019-01-11T15:22:35.962Z,73.11
2019-01-11T15:25:09.117Z,72.75
2019-01-11T15:27:38.023Z,72.92
2019-01-11T15:30:08.607Z,72.89
2019-01-11T15:32:37.297Z,72.76
2019-01-11T15:35:06.487Z,72.75
2019-01-11T15:37:35.148Z,72.93
2019-01-11T15:40:04.865Z,73.18
2019-01-11T15:42:33.449Z,73.49
2019-01-11T15:45:02.089Z,72.89
2019-01-11T15:47:30.805Z,73.03
2019-01-11T15:49:59.474Z,73.21
2019-01-11T15:52:33.304Z,73.11
2019-01-11T15:54:58.555Z,73.02
2019-01-11T15:57:42.715Z,73.07
2019-01-11T16:00:18.719Z,73.04
2019-01-11T16:02:47.439Z,73.04
2019-01-11T16:05:16.121Z,73.28
2019-01-11T16:07:45.006Z,73.76
2019-01-11T16:10:17.093Z,73.45
2019-01-11T16:12:48.781Z,74.05
2019-01-11T16:16:01.630Z,73.91
2019-01-11T16:18:32.012Z,74.72
2019-01-11T16:21:02.036Z,74.99
2019-01-11T16:23:30.699Z,75.32
2019-01-11T16:25:59.596Z,75.25
2019-01-11T16:28:28.612Z,75.60
2019-01-11T16:30:57.379Z,75.32
2019-01-11T16:33:26.134Z,75.43
2019-01-11T16:35:54.960Z,75.71
2019-01-11T16:38:23.633Z,75.68
2019-01-11T16:40:52.267Z,75.12
2019-01-11T16:43:21.125Z,75.37
2019-01-11T16:45:50.084Z,75.41
2019-01-11T16:48:18.655Z,75.13
2019-01-11T16:50:47.530Z,75.11
2019-01-11T16:53:16.225Z,74.91
2019-01-11T16:55:45.035Z,74.70
2019-01-11T16:58:15.325Z,75.24
2019-01-11T17:00:44.078Z,75.54
2019-01-11T17:03:12.898Z,76.43
2019-01-11T17:05:41.494Z,76.71
2019-01-11T17:08:10.449Z,76.80
2019-01-11T17:10:39.386Z,76.41
2019-01-11T17:13:08.409Z,76.29
2019-01-11T17:15:37.162Z,77.15
2019-01-11T17:18:05.926Z,77.38
2019-01-11T17:20:34.628Z,77.58
2019-01-11T17:23:03.722Z,77.11
2019-01-11T17:25:32.329Z,77.58
2019-01-11T17:28:01.987Z,77.49
2019-01-11T17:30:30.659Z,77.52
2019-01-11T17:32:59.257Z,77.36
2019-01-11T17:35:28.002Z,77.57
2019-01-11T17:37:57.415Z,77.41
2019-01-11T17:40:26.214Z,76.57
2019-01-11T17:42:54.956Z,76.23
2019-01-11T17:45:23.788Z,76.55
2019-01-11T17:47:52.514Z,76.67
2019-01-11T17:50:21.678Z,76.00
2019-01-11T17:52:50.366Z,76.24
2019-01-11T17:55:19.129Z,76.63
2019-01-11T17:57:47.813Z,76.61
2019-01-11T18:00:19.495Z,76.57
2019-01-11T18:02:48.174Z,76.55
2019-01-11T18:05:17.343Z,76.59
2019-01-11T18:07:46.382Z,77.04
2019-01-11T18:10:15.072Z,77.08
2019-01-11T18:12:43.777Z,77.13
2019-01-11T18:15:14.798Z,77.22
2019-01-11T18:17:43.445Z,77.24
2019-01-11T18:20:25.291Z,77.05
2019-01-11T18:22:54.124Z,77.08
2019-01-11T18:25:22.741Z,76.89
2019-01-11T18:27:51.408Z,76.50
2019-01-11T18:30:20.084Z,75.97
2019-01-11T18:32:48.867Z,75.97
2019-01-11T18:35:17.543Z,75.54
2019-01-11T18:37:46.290Z,75.56
2019-01-11T18:40:17.640Z,75.14
2019-01-11T18:42:46.314Z,75.20
2019-01-11T18:45:14.988Z,75.32
2019-01-11T18:47:43.587Z,75.52
2019-01-11T18:50:14.911Z,75.15
2019-01-11T18:52:43.609Z,74.82
2019-01-11T18:55:12.291Z,75.19
2019-01-11T18:57:40.990Z,75.27
2019-01-11T19:00:13.103Z,75.46
2019-01-11T19:02:41.953Z,75.32
2019-01-11T19:05:11.720Z,75.47
2019-01-11T19:07:45.920Z,75.88
2019-01-11T19:10:12.403Z,75.66
2019-01-11T19:12:41.071Z,74.97
2019-01-11T19:15:12.034Z,74.97
2019-01-11T19:17:40.689Z,74.81
2019-01-11T19:20:21.126Z,74.94
2019-01-11T19:22:49.803Z,74.76
2019-01-11T19:25:18.528Z,75.61
2019-01-11T19:27:48.210Z,76.09
2019-01-11T19:30:21.851Z,75.95
2019-01-11T19:32:50.539Z,76.30
2019-01-11T19:35:19.285Z,76.50
2019-01-11T19:37:48.013Z,77.18
2019-01-11T19:40:16.795Z,77.90
2019-01-11T19:42:45.693Z,78.42
2019-01-11T19:45:14.361Z,77.20
2019-01-11T19:47:43.386Z,77.72
2019-01-11T19:50:17.388Z,77.54
2019-01-11T19:52:46.147Z,77.51
2019-01-11T19:55:15.015Z,77.53
2019-01-11T19:57:43.669Z,77.72
2019-01-11T20:00:24.245Z,77.76
2019-01-11T20:02:53.489Z,77.50
2019-01-11T20:05:22.396Z,76.81
2019-01-11T20:07:51.003Z,76.65
2019-01-11T20:10:38.989Z,76.34
2019-01-11T20:13:07.667Z,76.28
2019-01-11T20:15:36.286Z,75.99
2019-01-11T20:18:05.304Z,76.07
2019-01-11T20:20:34.000Z,76.27
2019-01-11T20:23:02.905Z,76.15
2019-01-11T20:25:31.615Z,76.15
2019-01-11T20:28:00.215Z,76.12
2019-01-11T20:30:29.153Z,75.89
2019-01-11T20:32:57.801Z,75.65
2019-01-11T20:35:26.453Z,75.69
2019-01-11T20:37:55.147Z,75.41
2019-01-11T20:40:23.855Z,75.23
2019-01-11T20:42:52.664Z,75.24
2019-01-11T20:45:21.678Z,75.04
2019-01-11T20:47:50.312Z,74.89
2019-01-11T20:50:23.663Z,74.95
2019-01-11T20:52:52.524Z,74.77
2019-01-11T20:55:21.214Z,74.93
2019-01-11T20:57:49.950Z,74.76
2019-01-11T21:00:23.738Z,74.83
2019-01-11T21:02:52.388Z,74.84
2019-01-11T21:05:21.282Z,74.84
2019-01-11T21:07:49.946Z,74.83
2019-01-11T21:10:18.777Z,74.93
2019-01-11T21:12:47.515Z,74.78
2019-01-11T21:15:16.465Z,74.91
2019-01-11T21:17:45.121Z,74.82
2019-01-11T21:20:15.273Z,75.05
2019-01-11T21:22:44.049Z,75.02
2019-01-11T21:25:13.539Z,75.18
2019-01-11T21:27:42.273Z,75.19
2019-01-11T21:30:19.410Z,74.97
2019-01-11T21:32:48.500Z,75.31
2019-01-11T21:35:17.359Z,75.55
2019-01-11T21:37:46.128Z,75.25
2019-01-11T21:40:16.746Z,75.36
2019-01-11T21:42:45.383Z,75.56
2019-01-11T21:45:14.217Z,75.68
2019-01-11T21:47:42.891Z,75.88
2019-01-11T21:50:14.127Z,75.63
2019-01-11T21:52:42.896Z,75.95
2019-01-11T21:55:12.402Z,75.93
2019-01-11T21:57:41.218Z,75.98
2019-01-11T22:00:19.178Z,76.06
2019-01-11T22:02:47.842Z,75.82
2019-01-11T22:05:16.493Z,75.75
2019-01-11T22:07:45.142Z,75.73
2019-01-11T22:10:14.205Z,75.67
2019-01-11T22:12:42.823Z,75.76
2019-01-11T22:15:13.934Z,75.69
2019-01-11T22:17:42.569Z,75.76
2019-01-11T22:20:12.771Z,75.74
2019-01-11T22:22:41.407Z,75.51
2019-01-11T22:25:11.384Z,75.51
2019-01-11T22:27:40.559Z,75.59
2019-01-11T22:30:15.968Z,75.37
2019-01-11T22:32:44.797Z,75.33
2019-01-11T22:35:15.967Z,75.32
2019-01-11T22:37:44.776Z,75.50
2019-01-11T22:40:16.031Z,75.66
2019-01-11T22:42:45.224Z,75.99
2019-01-11T22:45:14.488Z,76.20
2019-01-11T22:47:43.132Z,76.37
2019-01-11T22:50:12.275Z,76.98
2019-01-11T22:52:41.147Z,77.14
2019-01-11T22:55:10.890Z,77.37
2019-01-11T22:57:39.683Z,77.62
2019-01-11T23:00:44.402Z,77.33
2019-01-11T23:03:17.421Z,77.66
2019-01-11T23:05:46.798Z,77.72
2019-01-11T23:08:18.848Z,77.22
2019-01-11T23:11:12.453Z,77.12
2019-01-11T23:13:41.216Z,76.96
2019-01-11T23:16:36.042Z,76.84
2019-01-11T23:19:05.207Z,76.77
2019-01-11T23:21:33.858Z,76.68
2019-01-11T23:24:02.701Z,76.79
2019-01-11T23:26:33.454Z,76.79
2019-01-11T23:29:02.510Z,76.92
2019-01-11T23:31:31.312Z,76.70
2019-01-11T23:33:59.950Z,76.62
2019-01-11T23:36:28.609Z,76.62
2019-01-11T23:38:57.275Z,76.48
2019-01-11T23:41:26.458Z,76.59
2019-01-11T23:43:55.073Z,76.18
2019-01-11T23:46:23.708Z,76.39
2019-01-11T23:48:52.334Z,75.94
2019-01-11T23:51:20.942Z,75.90
2019-01-11T23:53:50.752Z,76.09
2019-01-11T23:56:19.467Z,76.33
2019-01-11T23:58:48.220Z,76.43
